Latest Weather Observations for Sellicks Hill

IDS60901

Issued at 12:31 pm CDT Friday 18 October 2019 (issued every 10 minutes, with the page automatically refreshed every 10 minutes)

About weather observations | Map of Adelaide area stations | Latest observations for Adelaide area | Other Formats
Station Details ID: 023886 Name: MOUNT TERRIBLE RADAR Lat: -35.33 Lon: 138.50 Height: 385.7 m
Data from the previous 72 hours. | See also: Recent months at Sellicks Hill
Date/Time
CDT
Temp
°C
App
Temp
°C
Dew
Point
°C
Rel
Hum
%
Delta-T
°C
Wind Press
QNH
hPa
Press
MSL
hPa
Rain since
9am
mm
Dir  Spd
km/h
Gust
km/h
Spd
kts
Gust
kts
18/12:30pm - - - - - NW 17 37 9 20 - - -
18/12:00pm - - - - - NW 15 32 8 17 - - -
18/11:30am - - - - - NW 19 32 10 17 - - -
18/11:00am - - - - - NNW 19 35 10 19 - - -
18/10:30am - - - - - NW 15 33 8 18 - - -
18/10:00am - - - - - NW 17 32 9 17 - - -
18/09:30am - - - - - NW 15 28 8 15 - - -
18/09:00am - - - - - NW 19 35 10 19 - - -
18/08:30am - - - - - NW 17 32 9 17 - - -
18/08:00am - - - - - NW 17 32 9 17 - - -
18/07:30am - - - - - NW 17 30 9 16 - - -
18/07:00am - - - - - NNW 15 26 8 14 - - -
18/06:30am - - - - - NNW 13 20 7 11 - - -
18/06:00am - - - - - NNW 13 20 7 11 - - -
18/05:30am - - - - - NNW 13 22 7 12 - - -
18/05:00am - - - - - NNW 11 19 6 10 - - -
18/04:30am - - - - - NNW 11 17 6 9 - - -
18/04:00am - - - - - NNW 13 20 7 11 - - -
18/03:30am - - - - - NW 13 20 7 11 - - -
18/03:00am - - - - - NW 11 17 6 9 - - -
18/02:30am - - - - - NW 13 22 7 12 - - -
18/02:00am - - - - - NW 13 24 7 13 - - -
18/01:30am - - - - - NW 11 19 6 10 - - -
18/01:00am - - - - - NW 9 17 5 9 - - -
18/12:30am - - - - - NW 9 20 5 11 - - -
18/12:00am - - - - - NW 9 13 5 7 - - -
 
Date/Time
CDT
Temp
°C
App
Temp
°C
Dew
Point
°C
Rel
Hum
%
Delta-T
°C
Wind Press
QNH
hPa
Press
MSL
hPa
Rain since
9am
mm
Dir  Spd
km/h
Gust
km/h
Spd
kts
Gust
kts
17/11:30pm - - - - - NW 7 17 4 9 - - -
17/11:00pm - - - - - WNW 7 15 4 8 - - -
17/10:30pm - - - - - WNW 7 15 4 8 - - -
17/10:00pm - - - - - WNW 7 15 4 8 - - -
17/09:30pm - - - - - WNW 6 13 3 7 - - -
17/09:00pm - - - - - WNW 4 7 2 4 - - -
17/08:30pm - - - - - WNW 6 9 3 5 - - -
17/08:00pm - - - - - NW 6 11 3 6 - - -
17/07:30pm - - - - - WNW 7 15 4 8 - - -
17/07:00pm - - - - - WNW 7 15 4 8 - - -
17/06:30pm - - - - - WNW 9 19 5 10 - - -
17/06:00pm - - - - - WNW 9 19 5 10 - - -
17/05:30pm - - - - - WNW 9 17 5 9 - - -
17/05:00pm - - - - - WNW 6 13 3 7 - - -
17/04:30pm - - - - - WNW 7 17 4 9 - - -
17/04:00pm - - - - - WNW 7 15 4 8 - - -
17/03:30pm - - - - - WNW 9 17 5 9 - - -
17/03:00pm - - - - - NW 9 22 5 12 - - -
17/02:30pm - - - - - NW 7 20 4 11 - - -
17/02:00pm - - - - - WNW 9 19 5 10 - - -
17/01:30pm - - - - - WNW 9 20 5 11 - - -
17/01:00pm - - - - - WNW 9 24 5 13 - - -
17/12:30pm - - - - - WNW 11 20 6 11 - - -
17/12:00pm - - - - - WNW 9 22 5 12 - - -
17/11:30am - - - - - W 9 20 5 11 - - -
17/11:00am - - - - - WNW 9 19 5 10 - - -
17/10:30am - - - - - W 11 24 6 13 - - -
17/10:00am - - - - - W 13 24 7 13 - - -
17/09:30am - - - - - W 11 26 6 14 - - -
17/09:00am - - - - - W 11 22 6 12 - - -
17/08:30am - - - - - WSW 13 24 7 13 - - -
17/08:00am - - - - - W 7 19 4 10 - - -
17/07:30am - - - - - W 9 19 5 10 - - -
17/07:00am - - - - - WSW 9 20 5 11 - - -
17/06:30am - - - - - WSW 13 28 7 15 - - -
17/06:00am - - - - - W 9 22 5 12 - - -
17/05:30am - - - - - W 9 19 5 10 - - -
17/05:00am - - - - - WSW 9 22 5 12 - - -
17/04:30am - - - - - WSW 9 24 5 13 - - -
17/04:00am - - - - - WSW 9 17 5 9 - - -
17/03:30am - - - - - WSW 11 24 6 13 - - -
17/03:00am - - - - - W 13 32 7 17 - - -
17/02:30am - - - - - W 13 28 7 15 - - -
17/02:00am - - - - - W 11 26 6 14 - - -
17/01:30am - - - - - W 13 30 7 16 - - -
17/01:00am - - - - - W 13 32 7 17 - - -
17/12:30am - - - - - WNW 15 32 8 17 - - -
17/12:00am - - - - - W 15 32 8 17 - - -
 
Date/Time
CDT
Temp
°C
App
Temp
°C
Dew
Point
°C
Rel
Hum
%
Delta-T
°C
Wind Press
QNH
hPa
Press
MSL
hPa
Rain since
9am
mm
Dir  Spd
km/h
Gust
km/h
Spd
kts
Gust
kts
16/11:30pm - - - - - W 17 39 9 21 - - -
16/11:00pm - - - - - W 13 32 7 17 - - -
16/10:30pm - - - - - W 15 32 8 17 - - -
16/10:00pm - - - - - W 15 37 8 20 - - -
16/09:30pm - - - - - W 13 26 7 14 - - -
16/09:00pm - - - - - WNW 13 30 7 16 - - -
16/08:30pm - - - - - WNW 17 33 9 18 - - -
16/08:00pm - - - - - WNW 17 37 9 20 - - -
16/07:30pm - - - - - WNW 13 26 7 14 - - -
16/07:00pm - - - - - NW 13 28 7 15 - - -
16/06:30pm - - - - - WNW 15 32 8 17 - - -
16/06:00pm - - - - - NW 13 28 7 15 - - -
16/05:30pm - - - - - NW 13 32 7 17 - - -
16/05:00pm - - - - - WNW 15 28 8 15 - - -
16/04:30pm - - - - - WNW 15 28 8 15 - - -
16/04:00pm - - - - - WNW 17 30 9 16 - - -
16/03:30pm - - - - - WNW 15 30 8 16 - - -
16/03:00pm - - - - - WNW 13 26 7 14 - - -
16/02:30pm - - - - - WNW 13 20 7 11 - - -
16/02:00pm - - - - - WNW 11 22 6 12 - - -
16/01:30pm - - - - - WNW 9 19 5 10 - - -
16/01:00pm - - - - - WNW 9 19 5 10 - - -
16/12:30pm - - - - - WNW 11 22 6 12 - - -
16/12:00pm - - - - - WNW 9 19 5 10 - - -
16/11:30am - - - - - W 9 20 5 11 - - -
16/11:00am - - - - - WNW 7 15 4 8 - - -
16/10:30am - - - - - W 4 9 2 5 - - -
16/10:00am - - - - - W 6 11 3 6 - - -
16/09:30am - - - - - WSW 4 9 2 5 - - -
16/09:00am - - - - - WNW 2 11 1 6 - - -
16/08:30am - - - - - WSW 6 11 3 6 - - -
16/08:00am - - - - - W 7 13 4 7 - - -
16/07:30am - - - - - WNW 7 17 4 9 - - -
16/07:00am - - - - - WNW 7 17 4 9 - - -
16/06:30am - - - - - NW 6 9 3 5 - - -
16/06:00am - - - - - NW 6 9 3 5 - - -
16/05:30am - - - - - NW 6 11 3 6 - - -
16/05:00am - - - - - WNW 6 11 3 6 - - -
16/04:30am - - - - - NW 6 11 3 6 - - -
16/04:00am - - - - - WNW 6 11 3 6 - - -
16/03:30am - - - - - WSW 9 19 5 10 - - -
16/03:00am - - - - - W 6 11 3 6 - - -
16/02:30am - - - - - WSW 9 19 5 10 - - -
16/02:00am - - - - - NNW 4 7 2 4 - - -
16/01:30am - - - - - NNW 6 11 3 6 - - -
16/01:00am - - - - - N 7 13 4 7 - - -
16/12:30am - - - - - N 6 11 3 6 - - -
16/12:00am - - - - - ENE 2 7 1 4 - - -
 
Date/Time
CDT
Temp
°C
App
Temp
°C
Dew
Point
°C
Rel
Hum
%
Delta-T
°C
Wind Press
QNH
hPa
Press
MSL
hPa
Rain since
9am
mm
Dir  Spd
km/h
Gust
km/h
Spd
kts
Gust
kts
15/11:30pm - - - - - N 6 9 3 5 - - -
15/11:00pm - - - - - N 6 9 3 5 - - -
15/10:30pm - - - - - NNE 4 7 2 4 - - -
15/10:00pm - - - - - NNE 9 13 5 7 - - -
15/09:30pm - - - - - N 4 7 2 4 - - -
15/09:00pm - - - - - WSW 2 6 1 3 - - -
15/08:30pm - - - - - WNW 4 4 2 2 - - -
15/08:00pm - - - - - SSE 6 7 3 4 - - -
15/07:30pm - - - - - SSE 11 13 6 7 - - -
15/07:00pm - - - - - SSE 13 17 7 9 - - -
15/06:30pm - - - - - S 6 9 3 5 - - -
15/06:00pm - - - - - SE 9 13 5 7 - - -
15/05:30pm - - - - - S 9 19 5 10 - - -
15/05:00pm - - - - - SSE 7 9 4 5 - - -
15/04:30pm - - - - - SSW 2 7 1 4 - - -
15/04:00pm - - - - - ENE 4 6 2 3 - - -
15/03:30pm - - - - - E 2 6 1 3 - - -
15/03:00pm - - - - - NW 4 6 2 3 - - -
15/02:30pm - - - - - WSW 6 9 3 5 - - -
15/02:00pm - - - - - WNW 7 15 4 8 - - -
15/01:30pm - - - - - WSW 4 9 2 5 - - -
15/01:00pm - - - - - N 4 6 2 3 - - -

Latest Capital City Observations: Canberra | Sydney | Melbourne | Brisbane | Adelaide | Perth | Hobart | Darwin

Other formats

Comma delimited format used in spreadsheet applications
http://www.bom.gov.au/fwo/IDS60901/IDS60901.95679.axf

JavaScript Object Notation format (JSON) in row-major order
http://www.bom.gov.au/fwo/IDS60901/IDS60901.95679.json

Data quality

Most of these data are generated automatically and are frequently updated. Quality checks on data are not normally performed. It is possible for incorrect values to appear. Refer to information at About Latest Weather Observations and please check the disclaimer before using these data.